createdAt,value
2019-05-19T00:01:28.762Z,92.44
2019-05-19T00:03:55.246Z,92.62
2019-05-19T00:06:22.918Z,92.00
2019-05-19T00:08:52.992Z,92.03
2019-05-19T00:11:19.659Z,92.91
2019-05-19T00:14:18.406Z,92.56
2019-05-19T00:16:44.954Z,92.93
2019-05-19T00:19:25.553Z,93.24
2019-05-19T00:21:39.920Z,93.41
2019-05-19T00:24:06.422Z,93.93
2019-05-19T00:26:33.314Z,94.00
2019-05-19T00:29:00.492Z,93.91
2019-05-19T00:31:27.029Z,93.99
2019-05-19T00:33:53.535Z,93.67
2019-05-19T00:36:20.280Z,93.07
2019-05-19T00:38:46.758Z,92.76
2019-05-19T00:41:14.392Z,92.66
2019-05-19T00:43:40.868Z,93.00
2019-05-19T00:46:07.408Z,93.34
2019-05-19T00:48:34.215Z,93.71
2019-05-19T00:51:00.811Z,93.79
2019-05-19T00:53:27.363Z,92.83
2019-05-19T00:55:54.045Z,93.09
2019-05-19T00:58:20.814Z,93.04
2019-05-19T01:00:47.288Z,92.96
2019-05-19T01:03:14.116Z,93.19
2019-05-19T01:05:40.635Z,93.64
2019-05-19T01:08:07.291Z,93.93
2019-05-19T01:10:33.847Z,93.60
2019-05-19T01:13:00.618Z,93.42
2019-05-19T01:15:27.146Z,93.80
2019-05-19T01:17:53.692Z,94.16
2019-05-19T01:20:20.390Z,94.81
2019-05-19T01:22:47.279Z,95.21
2019-05-19T01:25:14.128Z,95.07
2019-05-19T01:27:40.736Z,94.53
2019-05-19T01:30:09.079Z,94.22
2019-05-19T01:32:35.707Z,93.60
2019-05-19T01:35:02.403Z,93.21
2019-05-19T01:37:28.944Z,93.87
2019-05-19T01:39:55.583Z,94.38
2019-05-19T01:42:22.181Z,94.46
2019-05-19T01:44:48.819Z,94.24
2019-05-19T01:47:15.428Z,94.45
2019-05-19T01:49:41.903Z,95.08
2019-05-19T01:52:09.775Z,95.48
2019-05-19T01:54:36.480Z,95.58
2019-05-19T01:57:03.012Z,95.58
2019-05-19T01:59:29.493Z,95.79
2019-05-19T02:01:56.057Z,95.08
2019-05-19T02:04:23.127Z,95.09
2019-05-19T02:06:49.773Z,94.97
2019-05-19T02:09:16.376Z,94.81
2019-05-19T02:11:43.125Z,94.11
2019-05-19T02:14:09.929Z,93.60
2019-05-19T02:16:36.439Z,94.51
2019-05-19T02:19:03.136Z,94.35
2019-05-19T02:21:29.872Z,94.85
2019-05-19T02:23:56.448Z,94.53
2019-05-19T02:26:22.954Z,95.23
2019-05-19T02:28:49.461Z,96.02
2019-05-19T02:31:15.989Z,96.46
2019-05-19T02:33:42.539Z,95.93
2019-05-19T02:36:09.066Z,95.25
2019-05-19T02:38:35.605Z,94.17
2019-05-19T02:41:04.045Z,94.76
2019-05-19T02:43:33.469Z,93.33
2019-05-19T02:46:00.187Z,94.06
2019-05-19T02:48:27.352Z,95.04
2019-05-19T02:50:54.563Z,95.92
2019-05-19T02:53:21.681Z,96.33
2019-05-19T02:55:48.858Z,96.75
2019-05-19T02:58:15.920Z,96.86
2019-05-19T03:00:54.115Z,97.00
2019-05-19T03:03:21.263Z,96.84
2019-05-19T03:05:48.144Z,96.39
2019-05-19T03:08:14.682Z,96.10
2019-05-19T03:10:50.654Z,95.98
2019-05-19T03:13:18.566Z,95.61
2019-05-19T03:15:45.333Z,95.58
2019-05-19T03:18:11.992Z,96.43
2019-05-19T03:20:38.601Z,96.40
2019-05-19T03:23:05.236Z,96.33
2019-05-19T03:25:32.094Z,95.99
2019-05-19T03:27:58.747Z,97.34
2019-05-19T03:30:32.149Z,97.51
2019-05-19T03:33:00.498Z,97.50
2019-05-19T03:35:28.107Z,97.95
2019-05-19T03:37:54.753Z,99.27
2019-05-19T03:40:21.609Z,98.76
2019-05-19T03:42:49.272Z,98.34
2019-05-19T03:45:20.764Z,98.60
2019-05-19T03:50:34.439Z,99.61
2019-05-19T03:53:02.027Z,100.00
2019-05-19T03:55:28.752Z,99.50
2019-05-19T03:57:55.426Z,98.35
2019-05-19T04:00:29.463Z,98.19
2019-05-19T04:03:00.527Z,98.46
2019-05-19T04:05:27.568Z,98.70
2019-05-19T04:07:54.112Z,98.68
2019-05-19T04:10:21.236Z,99.04
2019-05-19T04:12:48.266Z,99.15
2019-05-19T04:15:15.091Z,99.54
2019-05-19T04:17:44.691Z,99.80
2019-05-19T04:20:12.027Z,100.00
2019-05-19T04:22:39.156Z,100.00
2019-05-19T04:25:05.789Z,100.00
2019-05-19T04:27:33.390Z,100.00
2019-05-19T04:29:59.981Z,100.00
2019-05-19T04:32:37.031Z,99.82
2019-05-19T04:34:55.020Z,98.94
2019-05-19T04:37:21.747Z,98.73
2019-05-19T04:39:48.291Z,98.52
2019-05-19T04:42:14.995Z,98.52
2019-05-19T04:44:41.564Z,98.77
2019-05-19T04:47:08.125Z,98.12
2019-05-19T04:49:36.016Z,97.81
2019-05-19T04:52:12.180Z,97.29
2019-05-19T04:54:38.917Z,96.53
2019-05-19T04:57:05.517Z,95.67
2019-05-19T04:59:32.372Z,94.92
2019-05-19T05:01:59.075Z,93.60
2019-05-19T05:04:29.114Z,93.66
2019-05-19T05:06:54.217Z,93.40
2019-05-19T05:09:21.806Z,92.85
2019-05-19T05:11:48.474Z,91.65
2019-05-19T05:14:15.114Z,90.96
2019-05-19T05:16:41.707Z,90.42
2019-05-19T05:19:08.891Z,89.10
2019-05-19T05:21:35.461Z,87.89
2019-05-19T05:24:02.125Z,85.20
2019-05-19T05:26:29.284Z,83.04
2019-05-19T05:28:56.220Z,81.61
2019-05-19T05:31:22.780Z,80.16
2019-05-19T05:33:49.713Z,79.05
2019-05-19T05:36:16.677Z,78.68
2019-05-19T05:38:43.637Z,76.05
2019-05-19T05:41:10.419Z,73.61
2019-05-19T05:43:37.156Z,72.88
2019-05-19T05:46:03.907Z,72.29
2019-05-19T05:48:30.525Z,72.76
2019-05-19T05:50:57.230Z,72.53
2019-05-19T05:53:24.065Z,71.62
2019-05-19T05:55:50.861Z,70.67
2019-05-19T05:58:17.576Z,69.92
2019-05-19T06:00:44.534Z,69.41
2019-05-19T06:03:11.886Z,68.16
2019-05-19T06:05:38.850Z,66.23
2019-05-19T06:08:05.580Z,64.25
2019-05-19T06:10:32.347Z,64.25
2019-05-19T06:12:59.009Z,63.88
2019-05-19T06:18:17.710Z,63.65
2019-05-19T06:20:44.887Z,62.84
2019-05-19T06:23:14.427Z,61.61
2019-05-19T06:25:41.360Z,61.43
2019-05-19T06:28:08.222Z,60.51
2019-05-19T06:30:35.991Z,60.51
2019-05-19T06:33:03.434Z,59.69
2019-05-19T06:35:38.458Z,59.55
2019-05-19T06:38:05.458Z,60.44
2019-05-19T06:40:32.093Z,59.01
2019-05-19T06:42:58.849Z,60.05
2019-05-19T06:45:25.537Z,58.10
2019-05-19T06:47:52.220Z,57.89
2019-05-19T06:50:19.061Z,57.05
2019-05-19T06:52:45.565Z,56.31
2019-05-19T06:55:13.061Z,55.29
2019-05-19T06:57:39.799Z,54.25
2019-05-19T07:00:06.848Z,53.64
2019-05-19T07:02:33.549Z,53.02
2019-05-19T07:05:06.229Z,52.27
2019-05-19T07:07:32.824Z,51.88
2019-05-19T07:10:01.496Z,52.28
2019-05-19T07:12:28.067Z,51.81
2019-05-19T07:14:55.156Z,51.38
2019-05-19T07:17:21.787Z,49.32
2019-05-19T07:19:48.723Z,49.66
2019-05-19T07:22:15.412Z,49.19
2019-05-19T07:24:44.643Z,48.03
2019-05-19T07:27:12.363Z,48.91
2019-05-19T07:29:38.934Z,48.32
2019-05-19T07:32:05.838Z,48.84
2019-05-19T07:34:33.035Z,48.84
2019-05-19T07:37:00.187Z,49.19
2019-05-19T07:39:27.368Z,47.40
2019-05-19T07:41:55.298Z,47.17
2019-05-19T07:44:21.891Z,46.53
2019-05-19T07:46:52.049Z,46.27
2019-05-19T07:49:18.884Z,46.48
2019-05-19T07:51:45.528Z,46.59
2019-05-19T07:54:13.353Z,46.07
2019-05-19T07:56:40.222Z,45.25
2019-05-19T07:59:08.016Z,46.18
2019-05-19T08:01:34.754Z,45.34
2019-05-19T08:04:02.760Z,44.29
2019-05-19T08:06:29.820Z,44.40
2019-05-19T08:08:56.934Z,44.75
2019-05-19T08:11:23.739Z,45.10
2019-05-19T08:13:50.426Z,44.43
2019-05-19T08:16:17.569Z,44.66
2019-05-19T08:18:45.233Z,44.35
2019-05-19T08:21:14.041Z,45.15
2019-05-19T08:23:41.762Z,45.33
2019-05-19T08:26:11.846Z,45.20
2019-05-19T08:28:38.539Z,44.84
2019-05-19T08:31:05.273Z,44.75
2019-05-19T08:33:32.471Z,43.22
2019-05-19T08:36:03.372Z,43.96
2019-05-19T08:38:30.003Z,42.76
2019-05-19T08:40:56.647Z,45.12
2019-05-19T08:43:23.949Z,44.25
2019-05-19T08:45:50.633Z,43.71
2019-05-19T08:48:17.239Z,43.36
2019-05-19T08:50:44.070Z,44.38
2019-05-19T08:53:10.726Z,43.58
2019-05-19T08:55:37.288Z,42.49
2019-05-19T08:58:04.185Z,42.50
2019-05-19T09:00:34.948Z,42.49
2019-05-19T09:02:59.227Z,41.59
2019-05-19T09:05:25.844Z,42.36
2019-05-19T09:07:52.441Z,41.55
2019-05-19T09:10:19.479Z,42.08
2019-05-19T09:12:46.038Z,42.47
2019-05-19T09:15:13.045Z,41.63
2019-05-19T09:17:39.521Z,40.76
2019-05-19T09:20:07.701Z,43.10
2019-05-19T09:22:34.644Z,42.14
2019-05-19T09:25:01.840Z,42.39
2019-05-19T09:27:28.959Z,41.67
2019-05-19T09:29:55.475Z,42.66
2019-05-19T09:32:21.983Z,40.28
2019-05-19T09:34:48.602Z,42.26
2019-05-19T09:37:15.116Z,40.55
2019-05-19T09:39:41.649Z,41.20
2019-05-19T09:42:08.377Z,42.38
2019-05-19T09:44:34.942Z,42.56
2019-05-19T09:47:02.561Z,41.28
2019-05-19T09:49:32.387Z,42.85
2019-05-19T09:51:59.179Z,43.90
2019-05-19T09:54:26.261Z,43.80
2019-05-19T09:56:52.798Z,42.60
2019-05-19T09:59:24.142Z,41.53
2019-05-19T10:01:50.896Z,40.70
2019-05-19T10:04:17.611Z,41.85
2019-05-19T10:06:44.223Z,40.99
2019-05-19T10:09:14.853Z,39.03
2019-05-19T10:12:00.230Z,40.75
2019-05-19T10:14:26.926Z,42.50
2019-05-19T10:18:11.631Z,40.58
2019-05-19T10:20:39.078Z,41.92
2019-05-19T10:23:05.612Z,40.98
2019-05-19T10:25:32.114Z,40.93
2019-05-19T10:27:58.622Z,39.61
2019-05-19T10:30:25.489Z,40.12
2019-05-19T10:32:52.141Z,39.64
2019-05-19T10:35:18.701Z,39.65
2019-05-19T10:37:45.709Z,41.46
2019-05-19T10:40:12.896Z,42.24
2019-05-19T10:42:39.433Z,41.49
2019-05-19T10:45:06.561Z,40.85
2019-05-19T10:47:33.436Z,41.20
2019-05-19T10:50:01.772Z,41.64
2019-05-19T10:52:28.837Z,39.06
2019-05-19T10:54:56.542Z,37.93
2019-05-19T10:57:23.121Z,42.13
2019-05-19T10:59:49.948Z,37.39
2019-05-19T11:02:17.775Z,39.53
2019-05-19T11:04:44.289Z,40.28
2019-05-19T11:07:10.810Z,38.72
2019-05-19T11:09:37.644Z,36.62
2019-05-19T11:12:04.530Z,38.50
2019-05-19T11:14:31.354Z,38.66
2019-05-19T11:16:59.188Z,38.73
2019-05-19T11:19:25.667Z,37.05
2019-05-19T11:21:52.387Z,36.14
2019-05-19T11:24:18.924Z,34.91
2019-05-19T11:26:45.586Z,34.77
2019-05-19T11:29:12.313Z,34.84
2019-05-19T11:31:38.911Z,35.26
2019-05-19T11:34:05.561Z,34.88
2019-05-19T11:36:32.204Z,34.85
2019-05-19T11:39:02.337Z,35.13
2019-05-19T11:41:29.034Z,34.88
2019-05-19T11:43:55.582Z,36.13
2019-05-19T11:46:23.497Z,35.12
2019-05-19T11:48:50.154Z,35.98
2019-05-19T11:51:16.787Z,36.13
2019-05-19T11:53:43.578Z,35.14
2019-05-19T11:56:11.519Z,34.34
2019-05-19T11:58:38.346Z,35.07
2019-05-19T12:01:04.851Z,35.89
2019-05-19T12:03:33.421Z,35.08
2019-05-19T12:05:59.983Z,35.86
2019-05-19T12:08:26.560Z,35.59
2019-05-19T12:10:53.148Z,35.42
2019-05-19T12:13:19.929Z,36.57
2019-05-19T12:15:46.506Z,34.86
2019-05-19T12:18:13.157Z,34.54
2019-05-19T12:20:39.687Z,35.53
2019-05-19T12:23:06.509Z,36.85
2019-05-19T12:25:33.118Z,36.52
2019-05-19T12:28:00.070Z,35.82
2019-05-19T12:30:26.679Z,35.51
2019-05-19T12:32:53.238Z,36.85
2019-05-19T12:35:21.767Z,37.00
2019-05-19T12:37:48.457Z,35.99
2019-05-19T12:40:15.514Z,36.55
2019-05-19T12:42:42.078Z,36.39
2019-05-19T12:45:09.998Z,34.92
2019-05-19T12:47:36.640Z,36.21
2019-05-19T12:50:03.749Z,36.76
2019-05-19T12:52:30.622Z,36.05
2019-05-19T12:54:58.835Z,37.69
2019-05-19T12:57:26.379Z,37.42
2019-05-19T12:59:53.298Z,37.92
2019-05-19T13:02:19.809Z,36.18
2019-05-19T13:05:03.708Z,35.74
2019-05-19T13:07:15.015Z,35.23
2019-05-19T13:09:41.528Z,35.14
2019-05-19T13:12:08.082Z,34.60
2019-05-19T13:14:34.829Z,35.64
2019-05-19T13:17:04.469Z,34.89
2019-05-19T13:19:31.065Z,36.48
2019-05-19T13:21:57.589Z,33.84
2019-05-19T13:24:24.291Z,35.71
2019-05-19T13:26:56.691Z,36.13
2019-05-19T13:29:19.156Z,36.49
2019-05-19T13:31:45.686Z,36.71
2019-05-19T13:34:12.318Z,38.87
2019-05-19T13:36:40.368Z,39.13
2019-05-19T13:39:07.262Z,38.23
2019-05-19T13:41:34.570Z,38.63
2019-05-19T13:44:01.670Z,39.20
2019-05-19T13:46:39.220Z,39.67
2019-05-19T13:49:06.572Z,39.58
2019-05-19T13:51:54.980Z,40.44
2019-05-19T13:54:21.649Z,40.42
2019-05-19T13:56:48.124Z,41.61
2019-05-19T13:59:15.147Z,40.86
2019-05-19T14:01:41.690Z,40.41
2019-05-19T14:04:08.234Z,41.29
2019-05-19T14:07:01.039Z,41.28
2019-05-19T14:09:28.531Z,41.23
2019-05-19T14:11:55.585Z,40.81
2019-05-19T14:14:22.190Z,41.19
2019-05-19T14:16:49.102Z,41.04
2019-05-19T14:19:15.855Z,40.92
2019-05-19T14:21:42.648Z,40.84
2019-05-19T14:24:09.176Z,41.81
2019-05-19T14:26:35.733Z,41.91
2019-05-19T14:29:02.590Z,43.31
2019-05-19T14:31:29.891Z,43.61
2019-05-19T14:33:56.721Z,47.30
2019-05-19T14:36:23.755Z,49.32
2019-05-19T14:39:51.305Z,52.03
2019-05-19T14:42:36.720Z,52.65
2019-05-19T14:45:06.692Z,53.28
2019-05-19T14:47:33.658Z,53.81
2019-05-19T14:50:02.076Z,53.16
2019-05-19T14:52:28.620Z,53.08
2019-05-19T14:54:55.313Z,54.34
2019-05-19T14:57:24.640Z,55.14
2019-05-19T14:59:53.173Z,55.28
2019-05-19T15:02:21.222Z,56.42
2019-05-19T15:04:47.995Z,56.21
2019-05-19T15:07:14.684Z,55.49
2019-05-19T15:09:41.477Z,55.18
2019-05-19T15:12:08.254Z,55.17
2019-05-19T15:14:35.264Z,55.22
2019-05-19T15:17:02.509Z,54.95
2019-05-19T15:19:29.482Z,54.56
2019-05-19T15:21:56.215Z,54.60
2019-05-19T15:24:22.944Z,54.28
2019-05-19T15:26:49.507Z,53.92
2019-05-19T15:29:16.052Z,54.01
2019-05-19T15:31:42.589Z,53.80
2019-05-19T15:34:09.246Z,53.84
2019-05-19T15:36:36.281Z,53.75
2019-05-19T15:39:04.239Z,53.14
2019-05-19T15:41:30.918Z,52.83
2019-05-19T15:43:57.432Z,52.71
2019-05-19T15:46:24.085Z,53.36
2019-05-19T15:48:50.951Z,55.28
2019-05-19T15:51:27.852Z,55.03
2019-05-19T15:53:47.714Z,54.69
2019-05-19T15:56:15.338Z,53.95
2019-05-19T15:58:41.870Z,53.41
2019-05-19T16:01:09.827Z,52.66
2019-05-19T16:03:37.343Z,53.46
2019-05-19T16:06:05.458Z,52.47
2019-05-19T16:08:32.344Z,51.64
2019-05-19T16:10:58.850Z,52.82
2019-05-19T16:13:25.706Z,53.36
2019-05-19T16:15:52.303Z,54.37
2019-05-19T16:18:18.943Z,56.99
2019-05-19T16:20:45.767Z,61.96
2019-05-19T16:23:12.269Z,61.58
2019-05-19T16:25:38.852Z,62.33
2019-05-19T16:28:05.445Z,63.02
2019-05-19T16:30:32.086Z,64.07
2019-05-19T16:32:58.769Z,64.65
2019-05-19T16:35:25.764Z,65.50
2019-05-19T16:37:53.001Z,65.80
2019-05-19T16:40:20.883Z,66.68
2019-05-19T16:42:50.459Z,66.76
2019-05-19T16:45:17.282Z,66.87
2019-05-19T16:47:47.961Z,68.85
2019-05-19T16:50:15.543Z,67.71
2019-05-19T16:52:43.090Z,67.47
2019-05-19T16:55:24.037Z,68.05
2019-05-19T16:57:50.701Z,67.29
2019-05-19T17:00:18.383Z,66.27
2019-05-19T17:02:45.964Z,65.18
2019-05-19T17:05:13.004Z,63.30
2019-05-19T17:07:39.713Z,61.76
2019-05-19T17:10:06.737Z,62.01
2019-05-19T17:12:34.566Z,63.19
2019-05-19T17:15:01.224Z,62.55
2019-05-19T17:17:28.468Z,61.82
2019-05-19T17:19:55.951Z,61.28
2019-05-19T17:22:23.063Z,62.17
2019-05-19T17:24:49.714Z,61.77
2019-05-19T17:27:17.370Z,62.24
2019-05-19T17:29:44.940Z,62.96
2019-05-19T17:32:15.526Z,63.85
2019-05-19T17:34:43.306Z,63.78
2019-05-19T17:37:11.286Z,64.38
2019-05-19T17:39:41.885Z,64.79
2019-05-19T17:42:09.321Z,64.19
2019-05-19T17:44:38.417Z,63.98
2019-05-19T17:47:05.679Z,65.44
2019-05-19T17:49:33.890Z,65.68
2019-05-19T17:52:07.668Z,66.45
2019-05-19T17:54:36.312Z,67.12
2019-05-19T17:57:03.018Z,66.83
2019-05-19T17:59:31.898Z,66.24
2019-05-19T18:02:00.247Z,63.61
2019-05-19T18:04:27.974Z,63.61
2019-05-19T18:06:56.903Z,62.97
2019-05-19T18:09:25.047Z,61.88
2019-05-19T18:11:53.756Z,61.15
2019-05-19T18:14:21.613Z,61.04
2019-05-19T18:16:49.329Z,60.86
2019-05-19T18:19:18.886Z,60.79
2019-05-19T18:21:47.209Z,60.86
2019-05-19T18:24:17.073Z,61.61
2019-05-19T18:26:44.537Z,62.00
2019-05-19T18:29:13.025Z,63.24
2019-05-19T18:31:45.708Z,63.09
2019-05-19T18:34:22.004Z,62.77
2019-05-19T18:36:49.199Z,63.61
2019-05-19T18:39:29.409Z,63.38
2019-05-19T18:42:11.333Z,63.77
2019-05-19T18:44:38.502Z,63.54
2019-05-19T18:47:13.899Z,64.17
2019-05-19T18:49:43.682Z,64.38
2019-05-19T18:52:12.089Z,64.54
2019-05-19T18:54:40.185Z,64.18
2019-05-19T18:57:10.110Z,64.40
2019-05-19T18:59:47.499Z,64.12
2019-05-19T19:02:14.827Z,63.90
2019-05-19T19:04:46.426Z,63.87
2019-05-19T19:07:19.831Z,64.31
2019-05-19T19:09:49.507Z,64.27
2019-05-19T19:12:16.160Z,64.83
2019-05-19T19:14:49.361Z,66.08
2019-05-19T19:17:16.286Z,66.55
2019-05-19T19:19:44.125Z,66.02
2019-05-19T19:22:16.499Z,67.97
2019-05-19T19:24:45.083Z,67.96
2019-05-19T19:27:14.036Z,68.10
2019-05-19T19:29:44.981Z,67.83
2019-05-19T19:32:13.329Z,68.27
2019-05-19T19:34:42.226Z,68.52
2019-05-19T19:37:12.214Z,69.83
2019-05-19T19:39:42.341Z,70.63
2019-05-19T19:42:10.884Z,68.61
2019-05-19T19:44:41.220Z,66.06
2019-05-19T19:47:09.290Z,64.84
2019-05-19T19:49:36.115Z,65.72
2019-05-19T19:52:06.219Z,67.24
2019-05-19T19:54:43.878Z,67.94
2019-05-19T19:57:12.872Z,68.70
2019-05-19T19:59:40.806Z,68.76
2019-05-19T20:02:07.554Z,68.05
2019-05-19T20:04:34.294Z,68.29
2019-05-19T20:07:00.791Z,67.97
2019-05-19T20:09:27.371Z,67.60
2019-05-19T20:11:54.562Z,68.23
2019-05-19T20:14:21.214Z,69.79
2019-05-19T20:16:47.867Z,70.75
2019-05-19T20:19:14.403Z,69.79
2019-05-19T20:21:40.910Z,69.80
2019-05-19T20:24:07.598Z,68.60
2019-05-19T20:26:34.436Z,69.08
2019-05-19T20:29:00.974Z,68.44
2019-05-19T20:31:31.381Z,69.60
2019-05-19T20:33:57.285Z,71.19
2019-05-19T20:36:23.855Z,73.17
2019-05-19T20:38:50.776Z,73.13
2019-05-19T20:41:17.459Z,73.32
2019-05-19T20:43:43.976Z,72.20
2019-05-19T20:46:10.501Z,73.47
2019-05-19T20:48:37.431Z,72.35
2019-05-19T20:51:12.784Z,72.99
2019-05-19T20:53:41.633Z,74.88
2019-05-19T20:56:09.160Z,75.25
2019-05-19T20:58:36.938Z,75.51
2019-05-19T21:01:07.945Z,75.69
2019-05-19T21:03:34.465Z,76.15
2019-05-19T21:06:01.550Z,75.67
2019-05-19T21:08:28.187Z,76.37
2019-05-19T21:10:55.850Z,76.60
2019-05-19T21:13:23.437Z,78.52
2019-05-19T21:15:49.992Z,79.39
2019-05-19T21:18:16.795Z,78.48
2019-05-19T21:20:44.448Z,80.41
2019-05-19T21:23:11.258Z,79.48
2019-05-19T21:25:37.788Z,78.99
2019-05-19T21:28:04.271Z,78.63
2019-05-19T21:30:31.157Z,77.54
2019-05-19T21:32:57.649Z,77.78
2019-05-19T21:35:24.327Z,77.70
2019-05-19T21:37:50.871Z,79.11
2019-05-19T21:40:17.772Z,79.44
2019-05-19T21:42:44.619Z,79.41
2019-05-19T21:45:11.272Z,79.94
2019-05-19T21:47:39.060Z,80.13
2019-05-19T21:50:06.949Z,80.56
2019-05-19T21:52:33.553Z,82.48
2019-05-19T21:55:00.040Z,82.57
2019-05-19T21:57:26.549Z,81.15
2019-05-19T21:59:53.226Z,80.30
2019-05-19T22:02:19.689Z,80.95
2019-05-19T22:04:47.363Z,81.96
2019-05-19T22:07:22.190Z,81.54
2019-05-19T22:09:48.775Z,82.47
2019-05-19T22:12:15.266Z,83.34
2019-05-19T22:14:42.250Z,84.54
2019-05-19T22:17:08.979Z,85.13
2019-05-19T22:19:35.684Z,85.92
2019-05-19T22:22:02.297Z,86.69
2019-05-19T22:24:29.019Z,86.59
2019-05-19T22:26:55.998Z,87.76
2019-05-19T22:29:22.659Z,88.10
2019-05-19T22:31:49.135Z,89.13
2019-05-19T22:34:15.628Z,89.84
2019-05-19T22:36:42.201Z,86.77
2019-05-19T22:39:09.853Z,84.89
2019-05-19T22:41:36.356Z,83.40
2019-05-19T22:44:02.929Z,83.30
2019-05-19T22:46:29.551Z,82.53
2019-05-19T22:48:56.166Z,81.72
2019-05-19T22:51:22.943Z,81.53
2019-05-19T22:53:49.468Z,80.46
2019-05-19T22:56:17.188Z,80.51
2019-05-19T22:58:43.662Z,80.64
2019-05-19T23:01:10.132Z,80.99
2019-05-19T23:03:36.692Z,81.70
2019-05-19T23:06:03.324Z,81.91
2019-05-19T23:08:29.837Z,82.56
2019-05-19T23:10:56.291Z,83.07
2019-05-19T23:13:22.906Z,82.89
2019-05-19T23:15:49.468Z,83.74
2019-05-19T23:18:15.978Z,83.62
2019-05-19T23:20:42.461Z,84.39
2019-05-19T23:23:09.040Z,84.92
2019-05-19T23:25:35.761Z,84.66
2019-05-19T23:28:02.634Z,85.51
2019-05-19T23:30:29.146Z,85.07
2019-05-19T23:32:55.795Z,85.00
2019-05-19T23:35:22.478Z,85.93
2019-05-19T23:37:48.990Z,86.51
2019-05-19T23:40:15.518Z,86.16
2019-05-19T23:42:42.015Z,86.09
2019-05-19T23:45:08.678Z,86.88
2019-05-19T23:47:35.326Z,87.01
2019-05-19T23:50:01.918Z,86.80
2019-05-19T23:52:28.322Z,86.53
2019-05-19T23:54:54.862Z,86.92
2019-05-19T23:57:22.471Z,87.10
2019-05-19T23:59:48.980Z,86.85
